Knight Prairie, Illinois
Current Conditions -  °F | °C
As of 6:15 PM on Monday 20 Oct 2014 (Local Time) from KFWC Reporting Station
Clear Clear  
Wind Chill: 67°   Ceiling: Unl
Heat Index: 67°   Visibility: 10mi
Dew Point: 43°   Wind: 0mph
Humidity: 42%   Direction: NA
Pressure: 29.92"   Gusts: NA
Location:  38.1018°N, 88.4953°W
Report Text: KFWC 202315Z AUTO 00000KT 10SM CLR 19/06 A2992 RMK AO1 T01940061
Loading
Personal Weather Stations






























Interactive Weather Map
Tropical Storm Tracking
New forecast layout! Learn more

10-Day Weather Forecast

Advertisements
Track Severe Weather on mobile